sensor_id;sensor_type;location;lat;lon;timestamp;P1;durP1;ratioP1;P2;durP2;ratioP2
69220;SDS011;56331;51.992;20.910;2022-07-23T00:00:18;9.05;;;7.90;;
69220;SDS011;56331;51.992;20.910;2022-07-23T00:02:47;9.33;;;7.92;;
69220;SDS011;56331;51.992;20.910;2022-07-23T00:05:15;8.58;;;7.55;;
69220;SDS011;56331;51.992;20.910;2022-07-23T00:07:41;8.90;;;7.90;;
69220;SDS011;56331;51.992;20.910;2022-07-23T00:10:08;8.55;;;7.65;;
69220;SDS011;56331;51.992;20.910;2022-07-23T00:12:35;9.33;;;8.38;;
69220;SDS011;56331;51.992;20.910;2022-07-23T00:15:03;8.88;;;7.83;;
69220;SDS011;56331;51.992;20.910;2022-07-23T00:17:30;8.98;;;7.70;;
69220;SDS011;56331;51.992;20.910;2022-07-23T00:19:57;9.85;;;8.05;;
69220;SDS011;56331;51.992;20.910;2022-07-23T00:22:23;10.82;;;8.88;;
69220;SDS011;56331;51.992;20.910;2022-07-23T00:24:50;9.28;;;7.75;;
69220;SDS011;56331;51.992;20.910;2022-07-23T00:27:16;9.10;;;7.80;;
69220;SDS011;56331;51.992;20.910;2022-07-23T00:29:43;9.60;;;8.30;;
69220;SDS011;56331;51.992;20.910;2022-07-23T00:32:10;8.55;;;7.55;;
69220;SDS011;56331;51.992;20.910;2022-07-23T00:34:37;8.53;;;7.62;;
69220;SDS011;56331;51.992;20.910;2022-07-23T00:37:04;9.70;;;8.03;;
69220;SDS011;56331;51.992;20.910;2022-07-23T00:39:31;9.05;;;7.58;;
69220;SDS011;56331;51.992;20.910;2022-07-23T00:41:57;9.58;;;7.87;;
69220;SDS011;56331;51.992;20.910;2022-07-23T00:44:24;9.45;;;7.80;;
69220;SDS011;56331;51.992;20.910;2022-07-23T00:46:53;8.10;;;7.30;;
69220;SDS011;56331;51.992;20.910;2022-07-23T00:49:23;8.98;;;7.70;;
69220;SDS011;56331;51.992;20.910;2022-07-23T00:51:51;8.58;;;7.35;;
69220;SDS011;56331;51.992;20.910;2022-07-23T00:54:18;8.03;;;7.12;;
69220;SDS011;56331;51.992;20.910;2022-07-23T00:56:46;9.05;;;8.00;;
69220;SDS011;56331;51.992;20.910;2022-07-23T00:59:13;8.68;;;7.62;;
69220;SDS011;56331;51.992;20.910;2022-07-23T01:04:47;8.68;;;7.70;;
69220;SDS011;56331;51.992;20.910;2022-07-23T01:07:14;8.58;;;7.40;;
69220;SDS011;56331;51.992;20.910;2022-07-23T01:09:41;8.20;;;7.33;;
69220;SDS011;56331;51.992;20.910;2022-07-23T01:12:09;8.05;;;7.03;;
69220;SDS011;56331;51.992;20.910;2022-07-23T01:14:35;8.63;;;7.17;;
69220;SDS011;56331;51.992;20.910;2022-07-23T01:17:02;8.10;;;7.33;;
69220;SDS011;56331;51.992;20.910;2022-07-23T01:19:28;8.28;;;7.35;;
69220;SDS011;56331;51.992;20.910;2022-07-23T01:21:55;9.33;;;7.20;;
69220;SDS011;56331;51.992;20.910;2022-07-23T01:24:24;8.38;;;7.37;;
69220;SDS011;56331;51.992;20.910;2022-07-23T01:26:50;7.80;;;7.00;;
69220;SDS011;56331;51.992;20.910;2022-07-23T01:29:17;8.30;;;7.40;;
69220;SDS011;56331;51.992;20.910;2022-07-23T01:31:44;7.58;;;6.83;;
69220;SDS011;56331;51.992;20.910;2022-07-23T01:34:11;7.62;;;6.87;;
69220;SDS011;56331;51.992;20.910;2022-07-23T01:36:37;8.18;;;7.37;;
69220;SDS011;56331;51.992;20.910;2022-07-23T01:39:04;7.83;;;6.70;;
69220;SDS011;56331;51.992;20.910;2022-07-23T01:41:31;7.75;;;6.95;;
69220;SDS011;56331;51.992;20.910;2022-07-23T01:43:58;7.33;;;6.55;;
69220;SDS011;56331;51.992;20.910;2022-07-23T01:46:25;7.90;;;7.00;;
69220;SDS011;56331;51.992;20.910;2022-07-23T01:48:51;7.67;;;6.87;;
69220;SDS011;56331;51.992;20.910;2022-07-23T01:51:18;8.20;;;6.70;;
69220;SDS011;56331;51.992;20.910;2022-07-23T01:53:45;7.67;;;6.87;;
69220;SDS011;56331;51.992;20.910;2022-07-23T01:56:11;7.62;;;6.90;;
69220;SDS011;56331;51.992;20.910;2022-07-23T01:58:38;7.70;;;6.87;;
69220;SDS011;56331;51.992;20.910;2022-07-23T02:01:04;7.50;;;6.80;;
69220;SDS011;56331;51.992;20.910;2022-07-23T02:03:31;7.90;;;6.78;;
69220;SDS011;56331;51.992;20.910;2022-07-23T02:05:57;7.37;;;6.58;;
69220;SDS011;56331;51.992;20.910;2022-07-23T02:08:23;7.30;;;6.60;;
69220;SDS011;56331;51.992;20.910;2022-07-23T02:10:50;7.28;;;6.58;;
69220;SDS011;56331;51.992;20.910;2022-07-23T02:13:17;7.67;;;6.87;;
69220;SDS011;56331;51.992;20.910;2022-07-23T02:15:44;7.50;;;6.80;;
69220;SDS011;56331;51.992;20.910;2022-07-23T02:18:13;7.80;;;6.97;;
69220;SDS011;56331;51.992;20.910;2022-07-23T02:20:39;7.22;;;6.47;;
69220;SDS011;56331;51.992;20.910;2022-07-23T02:23:05;7.70;;;6.78;;
69220;SDS011;56331;51.992;20.910;2022-07-23T02:25:33;7.60;;;6.45;;
69220;SDS011;56331;51.992;20.910;2022-07-23T02:28:00;8.00;;;6.37;;
69220;SDS011;56331;51.992;20.910;2022-07-23T02:30:27;7.00;;;6.33;;
69220;SDS011;56331;51.992;20.910;2022-07-23T02:32:53;7.50;;;6.62;;
69220;SDS011;56331;51.992;20.910;2022-07-23T02:35:20;7.58;;;6.50;;
69220;SDS011;56331;51.992;20.910;2022-07-23T02:37:46;8.55;;;6.97;;
69220;SDS011;56331;51.992;20.910;2022-07-23T02:40:12;7.70;;;6.47;;
69220;SDS011;56331;51.992;20.910;2022-07-23T02:42:39;6.97;;;6.28;;
69220;SDS011;56331;51.992;20.910;2022-07-23T02:45:06;7.75;;;6.90;;
69220;SDS011;56331;51.992;20.910;2022-07-23T02:47:33;7.92;;;6.60;;
69220;SDS011;56331;51.992;20.910;2022-07-23T02:49:59;7.42;;;6.58;;
69220;SDS011;56331;51.992;20.910;2022-07-23T02:52:26;8.40;;;6.50;;
69220;SDS011;56331;51.992;20.910;2022-07-23T02:54:52;7.62;;;6.83;;
69220;SDS011;56331;51.992;20.910;2022-07-23T02:57:19;7.65;;;6.85;;
69220;SDS011;56331;51.992;20.910;2022-07-23T02:59:45;7.25;;;6.40;;
69220;SDS011;56331;51.992;20.910;2022-07-23T03:02:12;7.47;;;6.67;;
69220;SDS011;56331;51.992;20.910;2022-07-23T03:04:38;6.60;;;5.90;;
69220;SDS011;56331;51.992;20.910;2022-07-23T03:07:06;7.87;;;6.83;;
69220;SDS011;56331;51.992;20.910;2022-07-23T03:09:33;7.35;;;6.55;;
69220;SDS011;56331;51.992;20.910;2022-07-23T03:11:59;7.00;;;6.30;;
69220;SDS011;56331;51.992;20.910;2022-07-23T03:14:26;7.25;;;6.55;;
69220;SDS011;56331;51.992;20.910;2022-07-23T03:16:53;6.85;;;6.17;;
69220;SDS011;56331;51.992;20.910;2022-07-23T03:19:20;6.83;;;6.08;;
69220;SDS011;56331;51.992;20.910;2022-07-23T03:21:46;6.80;;;6.10;;
69220;SDS011;56331;51.992;20.910;2022-07-23T03:24:13;6.87;;;5.97;;
69220;SDS011;56331;51.992;20.910;2022-07-23T03:26:39;7.15;;;6.45;;
69220;SDS011;56331;51.992;20.910;2022-07-23T03:29:06;7.12;;;6.33;;
69220;SDS011;56331;51.992;20.910;2022-07-23T03:31:33;6.78;;;6.08;;
69220;SDS011;56331;51.992;20.910;2022-07-23T03:34:01;6.72;;;6.03;;
69220;SDS011;56331;51.992;20.910;2022-07-23T03:36:29;7.15;;;5.92;;
69220;SDS011;56331;51.992;20.910;2022-07-23T03:38:55;7.08;;;6.17;;
69220;SDS011;56331;51.992;20.910;2022-07-23T03:41:22;7.30;;;6.60;;
69220;SDS011;56331;51.992;20.910;2022-07-23T03:43:49;6.75;;;5.90;;
69220;SDS011;56331;51.992;20.910;2022-07-23T03:46:16;7.50;;;6.45;;
69220;SDS011;56331;51.992;20.910;2022-07-23T03:48:43;6.62;;;5.85;;
69220;SDS011;56331;51.992;20.910;2022-07-23T03:51:10;6.92;;;6.22;;
69220;SDS011;56331;51.992;20.910;2022-07-23T03:53:37;7.12;;;6.33;;
69220;SDS011;56331;51.992;20.910;2022-07-23T03:56:05;7.10;;;6.40;;
69220;SDS011;56331;51.992;20.910;2022-07-23T03:58:32;7.60;;;6.65;;
69220;SDS011;56331;51.992;20.910;2022-07-23T04:01:00;7.30;;;6.60;;
69220;SDS011;56331;51.992;20.910;2022-07-23T04:03:28;7.62;;;6.05;;
69220;SDS011;56331;51.992;20.910;2022-07-23T04:05:54;7.03;;;6.30;;
69220;SDS011;56331;51.992;20.910;2022-07-23T04:08:22;6.87;;;6.08;;
69220;SDS011;56331;51.992;20.910;2022-07-23T04:10:49;6.85;;;6.05;;
69220;SDS011;56331;51.992;20.910;2022-07-23T04:13:16;6.83;;;6.05;;
69220;SDS011;56331;51.992;20.910;2022-07-23T04:15:42;7.25;;;6.55;;
69220;SDS011;56331;51.992;20.910;2022-07-23T04:18:09;6.47;;;5.85;;
69220;SDS011;56331;51.992;20.910;2022-07-23T04:20:36;6.87;;;6.17;;
69220;SDS011;56331;51.992;20.910;2022-07-23T04:23:04;7.25;;;6.20;;
69220;SDS011;56331;51.992;20.910;2022-07-23T04:25:31;7.00;;;6.30;;
69220;SDS011;56331;51.992;20.910;2022-07-23T04:27:58;7.08;;;6.37;;
69220;SDS011;56331;51.992;20.910;2022-07-23T04:30:25;7.03;;;6.33;;
69220;SDS011;56331;51.992;20.910;2022-07-23T04:32:53;7.37;;;6.28;;
69220;SDS011;56331;51.992;20.910;2022-07-23T04:35:19;6.97;;;6.28;;
69220;SDS011;56331;51.992;20.910;2022-07-23T04:37:46;7.12;;;6.42;;
69220;SDS011;56331;51.992;20.910;2022-07-23T04:40:14;7.17;;;6.33;;
69220;SDS011;56331;51.992;20.910;2022-07-23T04:42:40;7.92;;;6.30;;
69220;SDS011;56331;51.992;20.910;2022-07-23T04:45:08;7.20;;;6.12;;
69220;SDS011;56331;51.992;20.910;2022-07-23T04:47:36;6.90;;;6.22;;
69220;SDS011;56331;51.992;20.910;2022-07-23T04:50:03;6.80;;;6.10;;
69220;SDS011;56331;51.992;20.910;2022-07-23T04:52:31;6.78;;;6.08;;
69220;SDS011;56331;51.992;20.910;2022-07-23T04:54:58;6.60;;;5.83;;
69220;SDS011;56331;51.992;20.910;2022-07-23T04:57:26;7.22;;;6.17;;
69220;SDS011;56331;51.992;20.910;2022-07-23T04:59:54;7.50;;;6.05;;
69220;SDS011;56331;51.992;20.910;2022-07-23T05:02:21;7.10;;;6.40;;
69220;SDS011;56331;51.992;20.910;2022-07-23T05:04:48;7.12;;;6.12;;
69220;SDS011;56331;51.992;20.910;2022-07-23T05:07:15;6.78;;;6.05;;
69220;SDS011;56331;51.992;20.910;2022-07-23T05:09:42;6.95;;;6.25;;
69220;SDS011;56331;51.992;20.910;2022-07-23T05:12:10;6.50;;;5.78;;
69220;SDS011;56331;51.992;20.910;2022-07-23T05:14:37;6.42;;;5.72;;
69220;SDS011;56331;51.992;20.910;2022-07-23T05:17:03;7.15;;;6.22;;
69220;SDS011;56331;51.992;20.910;2022-07-23T05:19:31;6.80;;;6.08;;
69220;SDS011;56331;51.992;20.910;2022-07-23T05:21:58;7.35;;;6.60;;
69220;SDS011;56331;51.992;20.910;2022-07-23T05:24:24;6.90;;;6.20;;
69220;SDS011;56331;51.992;20.910;2022-07-23T05:26:51;6.62;;;5.97;;
69220;SDS011;56331;51.992;20.910;2022-07-23T05:29:18;6.80;;;6.17;;
69220;SDS011;56331;51.992;20.910;2022-07-23T05:31:45;7.70;;;6.20;;
69220;SDS011;56331;51.992;20.910;2022-07-23T05:34:11;6.25;;;5.65;;
69220;SDS011;56331;51.992;20.910;2022-07-23T05:36:38;7.15;;;6.45;;
69220;SDS011;56331;51.992;20.910;2022-07-23T05:39:05;6.85;;;6.22;;
69220;SDS011;56331;51.992;20.910;2022-07-23T05:41:33;7.15;;;6.37;;
69220;SDS011;56331;51.992;20.910;2022-07-23T05:44:01;6.85;;;5.95;;
69220;SDS011;56331;51.992;20.910;2022-07-23T05:46:28;6.70;;;6.00;;
69220;SDS011;56331;51.992;20.910;2022-07-23T05:48:56;6.65;;;5.95;;
69220;SDS011;56331;51.992;20.910;2022-07-23T05:51:23;6.67;;;5.97;;
69220;SDS011;56331;51.992;20.910;2022-07-23T05:53:51;6.67;;;5.90;;
69220;SDS011;56331;51.992;20.910;2022-07-23T05:56:19;6.67;;;5.97;;
69220;SDS011;56331;51.992;20.910;2022-07-23T05:58:47;6.90;;;5.90;;
69220;SDS011;56331;51.992;20.910;2022-07-23T06:01:15;7.25;;;6.22;;
69220;SDS011;56331;51.992;20.910;2022-07-23T06:03:43;7.22;;;6.53;;
69220;SDS011;56331;51.992;20.910;2022-07-23T06:06:11;7.40;;;6.50;;
69220;SDS011;56331;51.992;20.910;2022-07-23T06:08:39;8.20;;;6.00;;
69220;SDS011;56331;51.992;20.910;2022-07-23T06:11:06;6.70;;;6.00;;
69220;SDS011;56331;51.992;20.910;2022-07-23T06:13:44;6.33;;;5.72;;
69220;SDS011;56331;51.992;20.910;2022-07-23T06:16:14;7.72;;;6.42;;
69220;SDS011;56331;51.992;20.910;2022-07-23T06:18:40;6.45;;;5.85;;
69220;SDS011;56331;51.992;20.910;2022-07-23T06:21:06;6.92;;;6.25;;
69220;SDS011;56331;51.992;20.910;2022-07-23T06:23:33;6.83;;;6.12;;
69220;SDS011;56331;51.992;20.910;2022-07-23T06:25:59;6.58;;;5.87;;
69220;SDS011;56331;51.992;20.910;2022-07-23T06:28:26;6.12;;;5.53;;
69220;SDS011;56331;51.992;20.910;2022-07-23T06:30:52;7.58;;;6.78;;
69220;SDS011;56331;51.992;20.910;2022-07-23T06:33:19;7.12;;;6.35;;
69220;SDS011;56331;51.992;20.910;2022-07-23T06:35:46;6.87;;;6.17;;
69220;SDS011;56331;51.992;20.910;2022-07-23T06:38:12;8.03;;;6.45;;
69220;SDS011;56331;51.992;20.910;2022-07-23T06:40:39;6.28;;;5.67;;
69220;SDS011;56331;51.992;20.910;2022-07-23T06:43:06;6.20;;;5.28;;
69220;SDS011;56331;51.992;20.910;2022-07-23T06:45:32;6.25;;;5.65;;
69220;SDS011;56331;51.992;20.910;2022-07-23T06:47:59;6.35;;;5.70;;
69220;SDS011;56331;51.992;20.910;2022-07-23T06:50:28;7.08;;;6.37;;
69220;SDS011;56331;51.992;20.910;2022-07-23T06:52:55;6.53;;;5.83;;
69220;SDS011;56331;51.992;20.910;2022-07-23T06:55:21;6.17;;;5.58;;
69220;SDS011;56331;51.992;20.910;2022-07-23T06:57:48;6.75;;;6.12;;
69220;SDS011;56331;51.992;20.910;2022-07-23T07:00:14;6.67;;;5.97;;
69220;SDS011;56331;51.992;20.910;2022-07-23T07:02:41;6.20;;;5.60;;
69220;SDS011;56331;51.992;20.910;2022-07-23T07:05:07;6.90;;;6.12;;
69220;SDS011;56331;51.992;20.910;2022-07-23T07:07:34;6.90;;;6.20;;
69220;SDS011;56331;51.992;20.910;2022-07-23T07:10:02;6.40;;;5.80;;
69220;SDS011;56331;51.992;20.910;2022-07-23T07:12:29;6.37;;;5.65;;
69220;SDS011;56331;51.992;20.910;2022-07-23T07:14:56;6.62;;;5.92;;
69220;SDS011;56331;51.992;20.910;2022-07-23T07:17:23;6.10;;;5.60;;
69220;SDS011;56331;51.992;20.910;2022-07-23T07:19:49;6.50;;;5.90;;
69220;SDS011;56331;51.992;20.910;2022-07-23T07:22:16;6.95;;;6.25;;
69220;SDS011;56331;51.992;20.910;2022-07-23T07:24:42;7.28;;;6.17;;
69220;SDS011;56331;51.992;20.910;2022-07-23T07:27:09;6.08;;;5.47;;
69220;SDS011;56331;51.992;20.910;2022-07-23T07:29:35;6.62;;;5.62;;
69220;SDS011;56331;51.992;20.910;2022-07-23T07:32:02;6.90;;;6.17;;
69220;SDS011;56331;51.992;20.910;2022-07-23T07:34:30;6.40;;;5.80;;
69220;SDS011;56331;51.992;20.910;2022-07-23T07:36:56;6.58;;;5.72;;
69220;SDS011;56331;51.992;20.910;2022-07-23T07:39:23;6.67;;;5.80;;
69220;SDS011;56331;51.992;20.910;2022-07-23T07:41:50;7.20;;;6.50;;
69220;SDS011;56331;51.992;20.910;2022-07-23T07:44:16;6.85;;;6.15;;
69220;SDS011;56331;51.992;20.910;2022-07-23T07:46:43;6.72;;;6.00;;
69220;SDS011;56331;51.992;20.910;2022-07-23T07:49:09;7.17;;;6.47;;
69220;SDS011;56331;51.992;20.910;2022-07-23T07:51:36;6.60;;;5.80;;
69220;SDS011;56331;51.992;20.910;2022-07-23T07:54:03;7.20;;;6.42;;
69220;SDS011;56331;51.992;20.910;2022-07-23T07:56:30;6.80;;;6.20;;
69220;SDS011;56331;51.992;20.910;2022-07-23T07:58:56;7.10;;;6.40;;
69220;SDS011;56331;51.992;20.910;2022-07-23T08:01:24;6.28;;;5.65;;
69220;SDS011;56331;51.992;20.910;2022-07-23T08:03:50;5.87;;;5.22;;
69220;SDS011;56331;51.992;20.910;2022-07-23T08:06:17;6.35;;;5.75;;
69220;SDS011;56331;51.992;20.910;2022-07-23T08:08:43;6.58;;;5.47;;
69220;SDS011;56331;51.992;20.910;2022-07-23T08:11:10;6.28;;;5.67;;
69220;SDS011;56331;51.992;20.910;2022-07-23T08:13:36;7.60;;;6.05;;
69220;SDS011;56331;51.992;20.910;2022-07-23T08:16:03;6.95;;;6.25;;
69220;SDS011;56331;51.992;20.910;2022-07-23T08:18:30;6.25;;;5.62;;
69220;SDS011;56331;51.992;20.910;2022-07-23T08:20:57;6.62;;;5.92;;
69220;SDS011;56331;51.992;20.910;2022-07-23T08:23:24;6.60;;;5.90;;
69220;SDS011;56331;51.992;20.910;2022-07-23T08:25:51;6.37;;;5.78;;
69220;SDS011;56331;51.992;20.910;2022-07-23T08:28:18;6.30;;;5.70;;
69220;SDS011;56331;51.992;20.910;2022-07-23T08:30:44;7.62;;;6.28;;
69220;SDS011;56331;51.992;20.910;2022-07-23T08:33:12;6.12;;;5.53;;
69220;SDS011;56331;51.992;20.910;2022-07-23T08:35:41;7.33;;;6.03;;
69220;SDS011;56331;51.992;20.910;2022-07-23T08:38:11;6.35;;;5.67;;
69220;SDS011;56331;51.992;20.910;2022-07-23T08:40:41;6.33;;;5.62;;
69220;SDS011;56331;51.992;20.910;2022-07-23T08:43:11;6.83;;;6.17;;
69220;SDS011;56331;51.992;20.910;2022-07-23T08:48:12;6.65;;;5.95;;
69220;SDS011;56331;51.992;20.910;2022-07-23T08:53:14;7.00;;;6.25;;
69220;SDS011;56331;51.992;20.910;2022-07-23T08:55:45;6.65;;;5.95;;
69220;SDS011;56331;51.992;20.910;2022-07-23T08:58:13;6.53;;;5.92;;
69220;SDS011;56331;51.992;20.910;2022-07-23T09:00:40;6.92;;;6.05;;
69220;SDS011;56331;51.992;20.910;2022-07-23T09:03:10;7.00;;;6.30;;
69220;SDS011;56331;51.992;20.910;2022-07-23T09:05:45;6.60;;;5.90;;
69220;SDS011;56331;51.992;20.910;2022-07-23T09:08:13;7.80;;;6.10;;
69220;SDS011;56331;51.992;20.910;2022-07-23T09:13:34;6.62;;;5.95;;
69220;SDS011;56331;51.992;20.910;2022-07-23T09:16:23;6.08;;;5.47;;
69220;SDS011;56331;51.992;20.910;2022-07-23T09:18:56;6.10;;;5.50;;
69220;SDS011;56331;51.992;20.910;2022-07-23T09:21:28;6.22;;;5.62;;
69220;SDS011;56331;51.992;20.910;2022-07-23T09:24:00;6.58;;;5.87;;
69220;SDS011;56331;51.992;20.910;2022-07-23T09:26:35;7.45;;;6.20;;
69220;SDS011;56331;51.992;20.910;2022-07-23T09:31:46;7.22;;;6.35;;
69220;SDS011;56331;51.992;20.910;2022-07-23T09:37:17;6.35;;;5.75;;
69220;SDS011;56331;51.992;20.910;2022-07-23T09:39:45;6.85;;;6.15;;
69220;SDS011;56331;51.992;20.910;2022-07-23T09:42:17;6.47;;;5.85;;
69220;SDS011;56331;51.992;20.910;2022-07-23T09:44:47;8.18;;;6.72;;
69220;SDS011;56331;51.992;20.910;2022-07-23T09:47:15;6.83;;;6.12;;
69220;SDS011;56331;51.992;20.910;2022-07-23T09:52:32;6.67;;;6.08;;
69220;SDS011;56331;51.992;20.910;2022-07-23T09:55:01;6.33;;;5.72;;
69220;SDS011;56331;51.992;20.910;2022-07-23T09:57:31;6.78;;;6.08;;
69220;SDS011;56331;51.992;20.910;2022-07-23T10:00:00;7.05;;;6.22;;
69220;SDS011;56331;51.992;20.910;2022-07-23T10:02:28;6.42;;;5.75;;
69220;SDS011;56331;51.992;20.910;2022-07-23T10:04:58;6.47;;;5.78;;
69220;SDS011;56331;51.992;20.910;2022-07-23T10:07:27;6.33;;;5.72;;
69220;SDS011;56331;51.992;20.910;2022-07-23T10:09:56;7.03;;;6.28;;
69220;SDS011;56331;51.992;20.910;2022-07-23T10:12:24;6.75;;;6.08;;
69220;SDS011;56331;51.992;20.910;2022-07-23T10:15:10;6.78;;;5.55;;
69220;SDS011;56331;51.992;20.910;2022-07-23T10:17:37;9.53;;;7.08;;
69220;SDS011;56331;51.992;20.910;2022-07-23T10:20:04;7.08;;;6.37;;
69220;SDS011;56331;51.992;20.910;2022-07-23T10:22:38;7.08;;;6.37;;
69220;SDS011;56331;51.992;20.910;2022-07-23T10:25:12;6.80;;;6.07;;
69220;SDS011;56331;51.992;20.910;2022-07-23T10:36:20;6.33;;;5.70;;
69220;SDS011;56331;51.992;20.910;2022-07-23T10:41:35;6.33;;;5.72;;
69220;SDS011;56331;51.992;20.910;2022-07-23T10:44:09;7.10;;;6.33;;
69220;SDS011;56331;51.992;20.910;2022-07-23T10:49:35;6.83;;;6.10;;
69220;SDS011;56331;51.992;20.910;2022-07-23T11:00:22;6.80;;;6.10;;
69220;SDS011;56331;51.992;20.910;2022-07-23T11:02:51;6.83;;;6.20;;
69220;SDS011;56331;51.992;20.910;2022-07-23T11:05:23;6.40;;;5.80;;
69220;SDS011;56331;51.992;20.910;2022-07-23T11:10:38;6.75;;;6.08;;
69220;SDS011;56331;51.992;20.910;2022-07-23T11:16:03;6.67;;;6.00;;
69220;SDS011;56331;51.992;20.910;2022-07-23T11:24:05;6.80;;;6.10;;
69220;SDS011;56331;51.992;20.910;2022-07-23T11:34:45;7.12;;;6.12;;
69220;SDS011;56331;51.992;20.910;2022-07-23T11:42:37;7.60;;;6.45;;
69220;SDS011;56331;51.992;20.910;2022-07-23T11:45:07;6.90;;;6.20;;
69220;SDS011;56331;51.992;20.910;2022-07-23T11:47:35;7.05;;;6.35;;
69220;SDS011;56331;51.992;20.910;2022-07-23T11:50:03;7.28;;;6.35;;
69220;SDS011;56331;51.992;20.910;2022-07-23T11:52:32;6.72;;;6.12;;
69220;SDS011;56331;51.992;20.910;2022-07-23T11:55:00;6.50;;;5.90;;
69220;SDS011;56331;51.992;20.910;2022-07-23T11:57:30;7.58;;;6.58;;
69220;SDS011;56331;51.992;20.910;2022-07-23T12:00:08;6.55;;;5.92;;
69220;SDS011;56331;51.992;20.910;2022-07-23T12:02:43;7.55;;;6.25;;
69220;SDS011;56331;51.992;20.910;2022-07-23T12:07:56;8.90;;;6.72;;
69220;SDS011;56331;51.992;20.910;2022-07-23T12:15:37;7.42;;;6.40;;
69220;SDS011;56331;51.992;20.910;2022-07-23T12:18:07;7.30;;;6.60;;
69220;SDS011;56331;51.992;20.910;2022-07-23T12:20:39;7.58;;;6.83;;
69220;SDS011;56331;51.992;20.910;2022-07-23T12:23:11;7.17;;;6.47;;
69220;SDS011;56331;51.992;20.910;2022-07-23T12:25:40;7.20;;;6.40;;
69220;SDS011;56331;51.992;20.910;2022-07-23T12:28:10;7.87;;;6.75;;
69220;SDS011;56331;51.992;20.910;2022-07-23T12:30:45;8.15;;;7.20;;
69220;SDS011;56331;51.992;20.910;2022-07-23T12:33:15;7.67;;;6.90;;
69220;SDS011;56331;51.992;20.910;2022-07-23T12:35:52;7.37;;;6.62;;
69220;SDS011;56331;51.992;20.910;2022-07-23T12:38:21;7.28;;;6.58;;
69220;SDS011;56331;51.992;20.910;2022-07-23T12:40:52;7.72;;;6.85;;
69220;SDS011;56331;51.992;20.910;2022-07-23T12:43:21;7.47;;;6.53;;
69220;SDS011;56331;51.992;20.910;2022-07-23T12:45:54;7.53;;;6.80;;
69220;SDS011;56331;51.992;20.910;2022-07-23T12:48:29;7.08;;;6.37;;
69220;SDS011;56331;51.992;20.910;2022-07-23T12:50:58;7.03;;;6.33;;
69220;SDS011;56331;51.992;20.910;2022-07-23T12:53:36;6.95;;;6.35;;
69220;SDS011;56331;51.992;20.910;2022-07-23T12:56:12;8.00;;;7.20;;
69220;SDS011;56331;51.992;20.910;2022-07-23T12:58:48;7.33;;;6.62;;
69220;SDS011;56331;51.992;20.910;2022-07-23T13:09:25;7.00;;;6.30;;
69220;SDS011;56331;51.992;20.910;2022-07-23T13:11:53;8.10;;;7.30;;
69220;SDS011;56331;51.992;20.910;2022-07-23T13:14:21;7.50;;;6.78;;
69220;SDS011;56331;51.992;20.910;2022-07-23T13:16:49;7.67;;;6.72;;
69220;SDS011;56331;51.992;20.910;2022-07-23T13:19:17;7.80;;;7.00;;
69220;SDS011;56331;51.992;20.910;2022-07-23T13:21:45;8.13;;;6.85;;
69220;SDS011;56331;51.992;20.910;2022-07-23T13:24:12;7.67;;;6.87;;
69220;SDS011;56331;51.992;20.910;2022-07-23T13:26:39;7.62;;;6.47;;
69220;SDS011;56331;51.992;20.910;2022-07-23T13:29:06;7.58;;;6.80;;
69220;SDS011;56331;51.992;20.910;2022-07-23T13:31:34;8.03;;;7.22;;
69220;SDS011;56331;51.992;20.910;2022-07-23T13:34:03;7.35;;;6.72;;
69220;SDS011;56331;51.992;20.910;2022-07-23T13:36:30;7.35;;;6.65;;
69220;SDS011;56331;51.992;20.910;2022-07-23T13:38:57;7.22;;;6.55;;
69220;SDS011;56331;51.992;20.910;2022-07-23T13:41:24;8.08;;;6.80;;
69220;SDS011;56331;51.992;20.910;2022-07-23T13:43:51;7.55;;;6.83;;
69220;SDS011;56331;51.992;20.910;2022-07-23T13:46:18;7.00;;;6.30;;
69220;SDS011;56331;51.992;20.910;2022-07-23T13:48:45;8.10;;;7.00;;
69220;SDS011;56331;51.992;20.910;2022-07-23T13:51:12;7.70;;;6.80;;
69220;SDS011;56331;51.992;20.910;2022-07-23T13:53:39;7.53;;;6.83;;
69220;SDS011;56331;51.992;20.910;2022-07-23T13:56:07;7.53;;;6.83;;
69220;SDS011;56331;51.992;20.910;2022-07-23T13:58:34;7.90;;;7.10;;
69220;SDS011;56331;51.992;20.910;2022-07-23T14:01:00;7.42;;;6.72;;
69220;SDS011;56331;51.992;20.910;2022-07-23T14:03:27;7.60;;;6.80;;
69220;SDS011;56331;51.992;20.910;2022-07-23T14:05:55;7.80;;;7.00;;
69220;SDS011;56331;51.992;20.910;2022-07-23T14:08:23;7.62;;;6.92;;
69220;SDS011;56331;51.992;20.910;2022-07-23T14:10:50;8.10;;;7.30;;
69220;SDS011;56331;51.992;20.910;2022-07-23T14:13:17;8.30;;;7.40;;
69220;SDS011;56331;51.992;20.910;2022-07-23T14:15:43;7.72;;;7.03;;
69220;SDS011;56331;51.992;20.910;2022-07-23T14:18:10;7.95;;;7.15;;
69220;SDS011;56331;51.992;20.910;2022-07-23T14:20:36;7.00;;;6.33;;
69220;SDS011;56331;51.992;20.910;2022-07-23T14:23:03;8.38;;;7.47;;
69220;SDS011;56331;51.992;20.910;2022-07-23T14:25:30;7.60;;;6.90;;
69220;SDS011;56331;51.992;20.910;2022-07-23T14:27:57;8.00;;;7.10;;
69220;SDS011;56331;51.992;20.910;2022-07-23T14:30:23;7.80;;;7.00;;
69220;SDS011;56331;51.992;20.910;2022-07-23T14:32:51;8.20;;;7.17;;
69220;SDS011;56331;51.992;20.910;2022-07-23T14:35:18;10.20;;;7.17;;
69220;SDS011;56331;51.992;20.910;2022-07-23T14:37:45;7.75;;;6.95;;
69220;SDS011;56331;51.992;20.910;2022-07-23T14:40:12;8.60;;;6.97;;
69220;SDS011;56331;51.992;20.910;2022-07-23T14:42:39;7.50;;;6.80;;
69220;SDS011;56331;51.992;20.910;2022-07-23T14:45:06;7.58;;;6.78;;
69220;SDS011;56331;51.992;20.910;2022-07-23T14:47:35;8.45;;;6.40;;
69220;SDS011;56331;51.992;20.910;2022-07-23T14:50:03;7.22;;;6.45;;
69220;SDS011;56331;51.992;20.910;2022-07-23T14:52:30;7.65;;;6.83;;
69220;SDS011;56331;51.992;20.910;2022-07-23T14:54:57;7.60;;;6.90;;
69220;SDS011;56331;51.992;20.910;2022-07-23T14:57:24;7.30;;;6.60;;
69220;SDS011;56331;51.992;20.910;2022-07-23T14:59:52;7.08;;;6.37;;
69220;SDS011;56331;51.992;20.910;2022-07-23T15:02:18;7.40;;;6.65;;
69220;SDS011;56331;51.992;20.910;2022-07-23T15:04:46;8.93;;;7.10;;
69220;SDS011;56331;51.992;20.910;2022-07-23T15:07:13;7.45;;;6.50;;
69220;SDS011;56331;51.992;20.910;2022-07-23T15:09:40;6.70;;;6.00;;
69220;SDS011;56331;51.992;20.910;2022-07-23T15:12:07;7.42;;;6.40;;
69220;SDS011;56331;51.992;20.910;2022-07-23T15:14:37;7.22;;;6.53;;
69220;SDS011;56331;51.992;20.910;2022-07-23T15:19:41;7.40;;;6.62;;
69220;SDS011;56331;51.992;20.910;2022-07-23T15:22:08;7.50;;;6.80;;
69220;SDS011;56331;51.992;20.910;2022-07-23T15:24:35;7.90;;;7.00;;
69220;SDS011;56331;51.992;20.910;2022-07-23T15:27:02;7.30;;;6.60;;
69220;SDS011;56331;51.992;20.910;2022-07-23T15:29:29;6.83;;;6.12;;
69220;SDS011;56331;51.992;20.910;2022-07-23T15:31:56;6.97;;;6.30;;
69220;SDS011;56331;51.992;20.910;2022-07-23T15:34:22;7.10;;;6.47;;
69220;SDS011;56331;51.992;20.910;2022-07-23T15:36:49;8.23;;;6.40;;
69220;SDS011;56331;51.992;20.910;2022-07-23T15:39:16;7.35;;;6.08;;
69220;SDS011;56331;51.992;20.910;2022-07-23T15:41:43;8.10;;;7.30;;
69220;SDS011;56331;51.992;20.910;2022-07-23T15:44:09;8.75;;;6.90;;
69220;SDS011;56331;51.992;20.910;2022-07-23T15:46:36;7.55;;;6.85;;
69220;SDS011;56331;51.992;20.910;2022-07-23T15:49:03;8.78;;;7.03;;
69220;SDS011;56331;51.992;20.910;2022-07-23T15:51:32;9.05;;;6.95;;
69220;SDS011;56331;51.992;20.910;2022-07-23T15:54:00;7.20;;;6.50;;
69220;SDS011;56331;51.992;20.910;2022-07-23T15:56:29;6.97;;;6.28;;
69220;SDS011;56331;51.992;20.910;2022-07-23T15:58:57;7.55;;;6.70;;
69220;SDS011;56331;51.992;20.910;2022-07-23T16:01:26;7.20;;;6.50;;